Temp     Hi    Low   Out    Dew  Wind  Wind   Wind    Hi    Hi   Wind   Heat    THW                Rain    Heat    Cool    In     In    In     In   Wind  Wind    ISS   Arc.
  Date    Time     Out   Temp   Temp   Hum    Pt. Speed   Dir    Run Speed   Dir  Chill  Index  Index   Bar    Rain  Rate    D-D     D-D    Temp   Hum    Dew   Heat  Samp   Tx   Recept  Int.
------------------------------------------------------------------------------------------------------------------------------------------------------------------------------------------------
12/07/22 12:30a   43.8   44.1   43.8    83   39.0   0.0   ---   0.00   0.0   ---   43.8   43.7   43.7  29.943  0.00  0.00   0.442   0.000   77.0    26   39.5   75.7   629    2     94.3   30 
12/07/22  1:00a   43.5   43.8   43.3    84   39.0   0.0   ---   0.00   0.0   ---   43.5   43.4   43.4  29.947  0.00  0.00   0.448   0.000   76.6    26   39.1   75.2   677    2    100.0   30 
12/07/22  1:30a   42.3   43.5   42.3    84   37.8   0.0   ---   0.00   0.0   ---   42.3   42.1   42.1  29.946  0.00  0.00   0.473   0.000   76.3    26   38.9   74.8   661    2     99.1   30 
12/07/22  2:00a   42.6   42.6   42.2    86   38.7   0.0   ---   0.00   0.0   ---   42.6   42.5   42.5  29.944  0.00  0.00   0.467   0.000   75.9    26   38.5   74.2   664    2     99.6   30 
12/07/22  2:30a   44.2   44.2   42.6    85   40.0   0.0   ---   0.00   0.0   ---   44.2   44.1   44.1  29.933  0.00  0.00   0.433   0.000   75.9    26   38.5   74.2   283    2     42.4   30 
12/07/22  3:00a   45.8   45.8   44.2    78   39.3   0.0   ---   0.00   0.0   ---   45.8   45.5   45.5  29.919  0.00  0.00   0.400   0.000   75.4    26   38.1   73.5     0    2      0.0   30 
12/07/22  3:30a   46.8   46.8   45.8    73   38.6   0.0   ---   0.00   0.0   ---   46.8   46.4   46.4  29.923  0.00  0.00   0.379   0.000   75.0    26   37.8   73.0     0    2      0.0   30 
12/07/22  4:00a   46.8   47.3   46.8    72   38.2   0.0   ---   0.00   0.0   ---   46.8   46.4   46.4  29.928  0.00  0.00   0.379   0.000   75.0    26   37.8   73.0     0    2      0.0   30 
12/07/22  4:30a   45.1   46.7   45.1    76   38.0   0.0   ---   0.00   0.0   ---   45.1   44.7   44.7  29.960  0.00  0.00   0.415   0.000   74.9    26   37.7   72.9     0    2      0.0   30 
12/07/22  5:00a   44.2   45.1   44.2    81   38.7   0.0   ---   0.00   0.0   ---   44.2   44.0   44.0  29.964  0.00  0.00   0.433   0.000   74.9    26   37.7   72.9     0    2      0.0   30 
12/07/22  5:30a   45.2   45.2   44.2    82   40.0   0.0   ---   0.00   0.0   ---   45.2   45.0   45.0  29.992  0.00  0.00   0.412   0.000   74.9    26   37.7   72.9     0    2      0.0   30 
12/07/22  6:00a   46.1   46.1   45.2    80   40.3   0.0   ---   0.00   0.0   ---   46.1   45.9   45.9  29.985  0.00  0.00   0.394   0.000   74.5    26   37.3   72.4     0    2      0.0   30 
12/07/22  6:30a   45.7   46.1   45.7    80   39.9   0.0   ---   0.00   0.0   ---   45.7   45.5   45.5  30.002  0.00  0.00   0.402   0.000   74.3    26   37.2   72.2     0    2      0.0   30 
12/07/22  7:00a   48.2   48.2   45.7    72   39.6   0.0   ---   0.00   0.0   ---   48.2   47.8   47.8  29.993  0.00  0.00   0.350   0.000   74.5    26   37.3   72.4     0    2      0.0   30 
12/07/22  7:30a   51.4   51.4   48.2    65   40.0   0.0   ---   0.00   0.0   ---   51.4   50.7   50.7  30.007  0.00  0.00   0.283   0.000   74.3    26   37.2   72.2   409    2     61.3   30 
12/07/22  8:00a   53.1   53.1   51.4    61   40.0   0.0   ---   0.00   0.0   ---   53.1   52.0   52.0  30.004  0.00  0.00   0.248   0.000   74.3    26   37.2   72.2   665    2     99.7   30 
12/07/22  8:30a   56.9   56.9   53.1    55   40.9   0.0   ---   0.00   0.0   ---   56.9   55.3   55.3  30.008  0.00  0.00   0.169   0.000   74.3    26   37.2   72.2   648    2     97.2   30 
12/07/22  9:00a   58.7   58.7   56.9    53   41.6   0.0   ---   0.00   0.0   ---   58.7   56.9   56.9  30.015  0.00  0.00   0.131   0.000   74.5    26   37.3   72.4   640    2     96.0   30 
12/07/22  9:30a   55.4   58.7   55.4    61   42.2   0.0   ---   0.00   0.0   ---   55.4   54.2   54.2  30.038  0.00  0.00   0.200   0.000   74.7    26   37.5   72.6   643    2     96.4   30 
12/07/22 10:00a   55.3   55.4   54.7    60   41.6   0.0   ---   0.00   0.0   ---   55.3   54.0   54.0  30.051  0.00  0.00   0.202   0.000   74.9    26   37.7   72.9   677    2    100.0   30 
12/07/22 10:30a   58.6   58.6   55.3    52   41.0   0.0   ---   0.00   0.0   ---   58.6   56.8   56.8  30.037  0.00  0.00   0.133   0.000   75.2    26   37.9   73.3   679    2    100.0   30 
12/07/22 11:00a   60.1   60.1   58.6    51   41.9   0.0   ---   0.00   0.0   ---   60.1   58.2   58.2  30.021  0.00  0.00   0.102   0.000   75.6    26   38.3   73.8   681    2    100.0   30 
12/07/22 11:30a   61.6   61.6   60.1    49   42.2   0.0   ---   0.00   0.0   ---   61.6   59.6   59.6  30.016  0.00  0.00   0.071   0.000   75.7    26   38.4   73.9   669    2    100.0   30 
12/07/22 12:00p   60.5   61.6   60.5    52   42.8   0.0   ---   0.00   0.0   ---   60.5   58.7   58.7  30.011  0.00  0.00   0.094   0.000   75.9    27   39.5   74.2   666    2     99.9   30 
12/07/22 12:30p   58.7   60.5   58.7    54   42.1   0.0   ---   0.00   0.0   ---   58.7   57.0   57.0  30.024  0.00  0.00   0.131   0.000   76.3    27   39.8   74.8   673    2    100.0   30 
12/07/22  1:00p   59.2   59.2   58.3    53   42.1   0.0   ---   0.00   0.0   ---   59.2   57.4   57.4  30.023  0.00  0.00   0.121   0.000   76.3    27   39.8   74.8   684    2    100.0   30 
12/07/22  1:30p   61.0   61.0   59.2    49   41.7   0.0   ---   0.00   0.0   ---   61.0   58.9   58.9  30.007  0.00  0.00   0.083   0.000   76.4    27   39.9   74.9   683    2    100.0   30 
12/07/22  2:00p   60.1   61.0   60.1    50   41.4   0.0   ---   0.00   0.0   ---   60.1   58.1   58.1  30.016  0.00  0.00   0.102   0.000   76.6    26   39.1   75.2   676    2    100.0   30 
12/07/22  2:30p   62.7   62.7   59.9    44   40.5   0.0   ---   0.00   0.0   ---   62.7   60.3   60.3  29.985  0.00  0.00   0.048   0.000   76.8    26   39.3   75.4   668    2    100.0   30 
12/07/22  3:00p   63.7   63.9   62.7    34   34.8   0.0   ---   0.00   0.0   ---   63.7   60.4   60.4  29.986  0.00  0.00   0.027   0.000   77.0    26   39.5   75.7   675    2    100.0   30 
12/07/22  3:30p   62.7   63.7   62.7    34   33.9   0.0   ---   0.00   0.0   ---   62.7   59.4   59.4  29.995  0.00  0.00   0.048   0.000   77.2    26   39.6   75.8   668    2    100.0   30 
12/07/22  4:00p   60.9   62.7   60.9    33   31.6   0.0   ---   0.00   0.0   ---   60.9   57.5   57.5  30.021  0.00  0.00   0.085   0.000   77.3    26   39.7   75.9   656    2     98.4   30 
12/07/22  4:30p   59.5   60.9   59.5    39   34.5   0.0   ---   0.00   0.0   ---   59.5   56.7   56.7  30.050  0.00  0.00   0.115   0.000   77.3    26   39.7   75.9   668    2    100.0   30 
12/07/22  5:00p   57.5   59.3   57.5    49   38.5   0.0   ---   0.00   0.0   ---   57.5   55.5   55.5  30.072  0.00  0.00   0.156   0.000   77.3    26   39.7   75.9   665    2     99.7   30 
12/07/22  5:30p   55.7   57.5   55.7    54   39.3   0.0   ---   0.00   0.0   ---   55.7   54.1   54.1  30.089  0.00  0.00   0.194   0.000   77.3    26   39.7   75.9   643    2     96.4   30 
12/07/22  6:00p   53.6   55.7   53.6    60   40.0   0.0   ---   0.00   0.0   ---   53.6   52.4   52.4  30.097  0.00  0.00   0.238   0.000   77.2    26   39.6   75.8   663    2     99.4   30 
12/07/22  6:30p   51.7   53.6   51.7    65   40.3   0.0   ---   0.00   0.0   ---   51.7   50.9   50.9  30.112  0.00  0.00   0.277   0.000   77.7    26   40.1   76.1   672    2    100.0   30 
12/07/22  7:00p   49.8   51.7   49.8    70   40.4   0.0   ---   0.00   0.0   ---   49.8   49.4   49.4  30.123  0.00  0.00   0.317   0.000   77.7    26   40.1   76.1   676    2    100.0   30 
12/07/22  7:30p   47.6   49.8   47.6    73   39.4   0.0   ---   0.00   0.0   ---   47.6   47.2   47.2  30.122  0.00  0.00   0.363   0.000   77.9    26   40.2   76.2   678    2    100.0   30 
12/07/22  8:00p   46.1   47.6   46.1    76   39.0   0.0   ---   0.00   0.0   ---   46.1   45.7   45.7  30.140  0.00  0.00   0.394   0.000   78.8    26   41.0   76.7   676    2    100.0   30 
12/07/22  8:30p   46.5   46.5   45.7    77   39.7   0.0   ---   0.00   0.0   ---   46.5   46.2   46.2  30.124  0.00  0.00   0.385   0.000   78.6    26   40.8   76.6   662    2     99.3   30 
12/07/22  9:00p   46.5   47.0   46.5    75   39.0   0.0   ---   0.00   0.0   ---   46.5   46.2   46.2  30.123  0.00  0.00   0.385   0.000   78.0    26   40.3   76.2   671    2    100.0   30 
12/07/22  9:30p   46.0   46.5   46.0    75   38.5   0.0   ---   0.00   0.0   ---   46.0   45.6   45.6  30.150  0.00  0.00   0.396   0.000   77.5    26   39.9   76.0   677    2    100.0   30 
12/07/22 10:00p   44.6   46.0   44.6    76   37.5   0.0   ---   0.00   0.0   ---   44.6   44.2   44.2  30.150  0.00  0.00   0.425   0.000   77.2    26   39.6   75.8   680    2    100.0   30 
12/07/22 10:30p   43.2   44.6   43.2    79   37.1   0.0   ---   0.00   0.0   ---   43.2   42.9   42.9  30.143  0.00  0.00   0.454   0.000   76.8    26   39.3   75.4   680    2    100.0   30 
12/07/22 11:00p   42.6   43.2   42.6    79   36.5   0.0   ---   0.00   0.0   ---   42.6   42.3   42.3  30.141  0.00  0.00   0.467   0.000   76.6    26   39.1   75.2   662    2     99.3   30 
12/07/22 11:30p   41.9   42.6   41.9    79   35.9   0.0   ---   0.00   0.0   ---   41.9   41.6   41.6  30.141  0.00  0.00   0.481   0.000   76.4    26   39.0   74.9   657    2     98.5   30 
12/08/22 12:00a   41.3   41.9   41.3    81   35.9   0.0   ---   0.00   0.0   ---   41.3   41.0   41.0  30.129  0.00  0.00   0.494   0.000   76.4    26   39.0   74.9   666    2     99.9   30 
12/08/22 12:30a   40.6   41.3   40.6    81   35.2   0.0   ---   0.00   0.0   ---   40.6   40.3   40.3  30.146  0.00  0.00   0.508   0.000   75.9    26   38.5   74.2   669    2    100.0   30 
12/08/22  1:00a   40.1   40.6   40.1    82   35.0   0.0   ---   0.00   0.0   ---   40.1   39.8   39.8  30.147  0.00  0.00   0.519   0.000   75.6    26   38.3   73.8   672    2    100.0   30 
12/08/22  1:30a   39.3   40.1   39.3    83   34.6   0.0   ---   0.00   0.0   ---   39.3   39.1   39.1  30.143  0.00  0.00   0.535   0.000   75.2    26   37.9   73.3   661    2     99.1   30 
12/08/22  2:00a   39.2   39.3   39.1    84   34.8   0.0   ---   0.00   0.0   ---   39.2   39.0   39.0  30.141  0.00  0.00   0.537   0.000   74.9    26   37.7   72.9   639    2     95.8   30 
12/08/22  2:30a   38.8   39.2   38.8    85   34.7   0.0   ---   0.00   0.0   ---   38.8   38.6   38.6  30.127  0.00  0.00   0.546   0.000   74.5    26   37.3   72.4   653    2     97.9   30 
12/08/22  3:00a   39.5   39.5   38.8    84   35.1   0.0   ---   0.00   0.0   ---   39.5   39.3   39.3  30.119  0.00  0.00   0.531   0.000   74.9    26   37.7   72.9   501    2     75.1   30 
12/08/22  3:30a   38.8   39.5   38.8    84   34.4   0.0   ---   0.00   0.0   ---   38.8   38.6   38.6  30.120  0.00  0.00   0.546   0.000   74.0    26   36.9   71.8     0    2      0.0   30 
12/08/22  4:00a   38.6   38.8   38.5    84   34.2   0.0   ---   0.00   0.0   ---   38.6   38.4   38.4  30.112  0.00  0.00   0.550   0.000   73.8    26   36.8   71.5     0    2      0.0   30 
12/08/22  4:30a   38.0   38.6   38.0    84   33.6   0.0   ---   0.00   0.0   ---   38.0   37.8   37.8  30.121  0.00  0.00   0.563   0.000   73.6    26   36.6   71.2     0    2      0.0   30 
12/08/22  5:00a   37.8   38.0   37.6    86   34.0   0.0   ---   0.00   0.0   ---   37.8   37.6   37.6  30.121  0.00  0.00   0.567   0.000   73.3    26   36.3   70.8     0    2      0.0   30 
12/08/22  5:30a   39.1   39.1   37.8    84   34.7   0.0   ---   0.00   0.0   ---   39.1   38.9   38.9  30.146  0.00  0.00   0.540   0.000   73.1    26   36.2   70.5     0    2      0.0   30 
12/08/22  6:00a   39.1   39.3   39.1    83   34.4   0.0   ---   0.00   0.0   ---   39.1   38.9   38.9  30.147  0.00  0.00   0.540   0.000   73.0    25   35.1   70.2     0    2      0.0   30 
12/08/22  6:30a   38.8   39.1   38.8    83   34.1   0.0   ---   0.00   0.0   ---   38.8   38.6   38.6  30.178  0.00  0.00   0.546   0.000   73.0    25   35.1   70.2     0    2      0.0   30 
12/08/22  7:00a   37.6   38.8   37.6    85   33.5   0.0   ---   0.00   0.0   ---   37.6   37.4   37.4  30.179  0.00  0.00   0.571   0.000   72.8    25   34.9   69.9     5    2      0.7   30 
12/08/22  7:30a   40.6   40.6   37.6    83   35.8   0.0   ---   0.00   0.0   ---   40.6   40.4   40.4  30.194  0.00  0.00   0.508   0.000   73.3    26   36.3   70.8   663    2     99.4   30 
12/08/22  8:00a   47.3   47.3   40.6    70   38.0   0.0   ---   0.00   0.0   ---   47.3   46.8   46.8  30.165  0.00  0.00   0.369   0.000   73.8    25   35.8   71.4   653    2     97.9   30 
12/08/22  8:30a   51.3   51.3   47.4    61   38.3   0.0   ---   0.00   0.0   ---   51.3   50.4   50.4  30.147  0.00  0.00   0.285   0.000   73.6    25   35.6   71.1   668    2    100.0   30 
12/08/22  9:00a   54.4   54.4   51.4    56   39.0   0.0   ---   0.00   0.0   ---   54.4   53.0   53.0  30.145  0.00  0.00   0.221   0.000   73.6    25   35.6   71.1   670    2    100.0   30 
12/08/22  9:30a   56.5   56.5   54.4    52   39.1   0.0   ---   0.00   0.0   ---   56.5   54.7   54.7  30.144  0.00  0.00   0.177   0.000   73.8    25   35.8   71.4   681    2    100.0   30 
12/08/22 10:00a   58.3   58.3   56.5    49   39.2   0.0   ---   0.00   0.0   ---   58.3   56.2   56.2  30.143  0.00  0.00   0.140   0.000   74.2    25   36.1   71.9   667    2    100.0   30 
12/08/22 10:30a   59.8   59.8   58.3    45   38.4   0.0   ---   0.00   0.0   ---   59.8   57.5   57.5  30.144  0.00  0.00   0.108   0.000   74.3    26   37.2   72.2   666    2     99.9   30 
12/08/22 11:00a   59.6   59.8   59.5    46   38.8   0.0   ---   0.00   0.0   ---   59.6   57.4   57.4  30.132  0.00  0.00   0.113   0.000   74.7    26   37.5   72.6   643    2     96.4   30 
12/08/22 11:30a   59.3   59.6   59.2    50   40.7   0.0   ---   0.00   0.0   ---   59.3   57.3   57.3  30.123  0.00  0.00   0.119   0.000   74.9    26   37.7   72.9   636    2     95.4   30 
12/08/22 12:00p   60.7   60.7   58.9    48   40.9   0.0   ---   0.00   0.0   ---   60.7   58.6   58.6  30.102  0.00  0.00   0.090   0.000   75.2    26   37.9   73.3   645    2     96.7   30 
12/08/22 12:30p   60.5   60.7   60.2    46   39.6   0.0   ---   0.00   0.0   ---   60.5   58.3   58.3  30.099  0.00  0.00   0.094   0.000   75.4    26   38.1   73.5   635    2     95.2   30 
12/08/22  1:00p   60.5   60.9   60.4    46   39.6   0.0   ---   0.00   0.0   ---   60.5   58.3   58.3  30.092  0.00  0.00   0.094   0.000   75.7    26   38.4   73.9   634    2     95.1   30 
12/08/22  1:30p   62.4   62.4   60.5    38   36.4   0.0   ---   0.00   0.0   ---   62.4   59.5   59.5  30.081  0.00  0.00   0.054   0.000   76.1    25   37.7   74.4   642    2     96.3   30 
12/08/22  2:00p   63.4   63.4   62.4    35   35.2   0.0   ---   0.00   0.0   ---   63.4   60.2   60.2  30.067  0.00  0.00   0.033   0.000   76.3    25   37.9   74.7   630    2     94.5   30 
12/08/22  2:30p   63.2   63.4   62.6    32   32.8   0.0   ---   0.00   0.0   ---   63.2   59.7   59.7  30.063  0.00  0.00   0.037   0.000   76.6    25   38.1   75.1   639    2     95.8   30 
12/08/22  3:00p   62.1   63.4   62.1    31   31.1   0.0   ---   0.00   0.0   ---   62.1   58.6   58.6  30.059  0.00  0.00   0.060   0.000   77.0    25   38.5   75.7   640    2     96.0   30 
12/08/22  3:30p   60.9   62.1   60.9    35   33.0   0.0   ---   0.00   0.0   ---   60.9   57.7   57.7  30.064  0.00  0.00   0.085   0.000   77.2    25   38.6   75.8   607    2     91.0   30 
12/08/22  4:00p   59.8   60.9   59.8    36   32.8   0.0   ---   0.00   0.0   ---   59.8   56.8   56.8  30.069  0.00  0.00   0.108   0.000   77.3    25   38.7   75.8   607    2     91.0   30 
12/08/22  4:30p   58.6   59.8   58.6    39   33.7   0.0   ---   0.00   0.0   ---   58.6   55.9   55.9  30.072  0.00  0.00   0.133   0.000   77.3    25   38.7   75.8   605    2     90.7   30 
12/08/22  5:00p   55.9   58.6   55.9    46   35.4   0.0   ---   0.00   0.0   ---   55.9   53.8   53.8  30.076  0.00  0.00   0.190   0.000   77.3    25   38.7   75.8   598    2     89.7   30 
12/08/22  5:30p   52.9   55.9   52.9    55   37.2   0.0   ---   0.00   0.0   ---   52.9   51.5   51.5  30.080  0.00  0.00   0.252   0.000   77.3    25   38.7   75.8   596    2     89.4   30 
12/08/22  6:00p   49.9   52.9   49.9    63   37.8   0.0   ---   0.00   0.0   ---   49.9   49.2   49.2  30.101  0.00  0.00   0.315   0.000   77.2    25   38.6   75.8   564    2     84.6   30 
12/08/22  6:30p   49.2   49.9   49.2    67   38.7   0.0   ---   0.00   0.0   ---   49.2   48.7   48.7  30.116  0.00  0.00   0.329   0.000   79.0    25   40.2   76.7   587    2     88.0   30 
12/08/22  7:00p   47.6   49.2   47.6    71   38.7   0.0   ---   0.00   0.0   ---   47.6   47.1   47.1  30.126  0.00  0.00   0.363   0.000   80.6    24   40.5   77.9   615    2     92.2   30 
12/08/22  7:30p   47.1   47.9   47.1    72   38.5   0.0   ---   0.00   0.0   ---   47.1   46.7   46.7  30.099  0.00  0.00   0.373   0.000   80.3    24   40.2   77.7   655    2     98.2   30